Kiamika, Canada
Current Conditions -  °F | °C
As of 10:00 AM on Thursday 23 Oct 2014 (Local Time) from CYND Reporting Station
Few Clouds Few Clouds  
Wind Chill: 50°   Ceiling: Unl
Heat Index: 50°   Visibility: 15mi
Dew Point: 37°   Wind: 6mph
Humidity: 62%   Direction: 360°N
Pressure: 30.11"   Gusts: NA
Location:  46.42°N, 75.37°W
Report Text: CYND 231400Z 36005KT 15SM FEW020 10/03 A3011 RMK SC2 SLP197
Loading
Personal Weather Stations






























Interactive Weather Map New forecast layout! Learn more

10-Day Weather Forecast

Advertisements
Track Severe Weather on mobile